sensor_id;sensor_type;location;lat;lon;timestamp;P1;P2;P0
51320;PMS5003;38732;49.556;6.286;2022-11-15T00:01:09;24.25;23.75;13.00
51320;PMS5003;38732;49.556;6.286;2022-11-15T00:03:43;23.00;19.00;12.60
51320;PMS5003;38732;49.556;6.286;2022-11-15T00:06:12;11.00;10.00;2.00
51320;PMS5003;38732;49.556;6.286;2022-11-15T00:08:40;23.75;22.75;13.50
51320;PMS5003;38732;49.556;6.286;2022-11-15T00:11:09;23.00;19.00;11.00
51320;PMS5003;38732;49.556;6.286;2022-11-15T00:13:39;21.60;18.20;12.20
51320;PMS5003;38732;49.556;6.286;2022-11-15T00:16:08;24.00;21.50;12.50
51320;PMS5003;38732;49.556;6.286;2022-11-15T00:18:37;18.75;17.25;11.75
51320;PMS5003;38732;49.556;6.286;2022-11-15T00:21:07;20.40;20.40;13.20
51320;PMS5003;38732;49.556;6.286;2022-11-15T00:23:38;19.00;18.60;11.20
51320;PMS5003;38732;49.556;6.286;2022-11-15T00:26:08;19.00;18.75;12.00
51320;PMS5003;38732;49.556;6.286;2022-11-15T00:28:40;24.60;18.20;11.20
51320;PMS5003;38732;49.556;6.286;2022-11-15T00:31:09;20.20;20.20;12.40
51320;PMS5003;38732;49.556;6.286;2022-11-15T00:33:42;15.20;13.80;7.60
51320;PMS5003;38732;49.556;6.286;2022-11-15T00:36:11;13.80;13.00;8.20
51320;PMS5003;38732;49.556;6.286;2022-11-15T00:38:40;17.00;14.00;9.00
51320;PMS5003;38732;49.556;6.286;2022-11-15T00:41:08;14.00;11.75;7.75
51320;PMS5003;38732;49.556;6.286;2022-11-15T00:43:36;17.25;16.00;12.00
51320;PMS5003;38732;49.556;6.286;2022-11-15T00:46:05;16.00;14.00;9.00
51320;PMS5003;38732;49.556;6.286;2022-11-15T00:48:33;17.00;17.00;10.00
51320;PMS5003;38732;49.556;6.286;2022-11-15T00:51:01;18.50;14.25;8.25
51320;PMS5003;38732;49.556;6.286;2022-11-15T00:53:30;15.50;13.25;8.25
51320;PMS5003;38732;49.556;6.286;2022-11-15T00:55:58;13.25;12.00;7.00
51320;PMS5003;38732;49.556;6.286;2022-11-15T00:58:26;15.00;13.25;8.75
51320;PMS5003;38732;49.556;6.286;2022-11-15T01:00:54;8.75;8.00;6.00
51320;PMS5003;38732;49.556;6.286;2022-11-15T01:03:23;10.00;10.00;6.00
51320;PMS5003;38732;49.556;6.286;2022-11-15T01:05:51;8.50;8.50;6.00
51320;PMS5003;38732;49.556;6.286;2022-11-15T01:08:19;9.75;7.75;6.00
51320;PMS5003;38732;49.556;6.286;2022-11-15T01:10:47;8.00;7.00;3.75
51320;PMS5003;38732;49.556;6.286;2022-11-15T01:13:15;7.75;6.75;4.00
51320;PMS5003;38732;49.556;6.286;2022-11-15T01:15:44;7.00;6.25;3.50
51320;PMS5003;38732;49.556;6.286;2022-11-15T01:18:12;3.75;2.75;2.00
51320;PMS5003;38732;49.556;6.286;2022-11-15T01:20:41;4.25;4.25;2.00
51320;PMS5003;38732;49.556;6.286;2022-11-15T01:23:10;4.00;4.00;2.50
51320;PMS5003;38732;49.556;6.286;2022-11-15T01:25:38;5.25;5.00;3.00
51320;PMS5003;38732;49.556;6.286;2022-11-15T01:28:06;5.75;5.75;3.00
51320;PMS5003;38732;49.556;6.286;2022-11-15T01:30:35;3.75;3.75;2.00
51320;PMS5003;38732;49.556;6.286;2022-11-15T01:33:04;5.50;5.50;3.00
51320;PMS5003;38732;49.556;6.286;2022-11-15T01:35:32;6.25;6.25;4.00
51320;PMS5003;38732;49.556;6.286;2022-11-15T01:38:00;8.25;8.25;5.50
51320;PMS5003;38732;49.556;6.286;2022-11-15T01:40:28;12.00;11.00;6.75
51320;PMS5003;38732;49.556;6.286;2022-11-15T01:42:57;8.25;8.25;5.50
51320;PMS5003;38732;49.556;6.286;2022-11-15T01:45:25;15.50;11.00;6.75
51320;PMS5003;38732;49.556;6.286;2022-11-15T01:47:54;12.00;11.60;7.00
51320;PMS5003;38732;49.556;6.286;2022-11-15T01:50:25;13.60;13.40;6.80
51320;PMS5003;38732;49.556;6.286;2022-11-15T01:52:57;12.20;10.00;6.00
51320;PMS5003;38732;49.556;6.286;2022-11-15T01:55:26;16.00;14.25;10.00
51320;PMS5003;38732;49.556;6.286;2022-11-15T01:57:59;18.20;16.20;8.80
51320;PMS5003;38732;49.556;6.286;2022-11-15T02:00:31;17.40;14.60;8.20
51320;PMS5003;38732;49.556;6.286;2022-11-15T02:03:00;15.75;13.75;8.00
51320;PMS5003;38732;49.556;6.286;2022-11-15T02:05:30;12.80;10.00;4.80
51320;PMS5003;38732;49.556;6.286;2022-11-15T02:07:59;19.20;14.40;8.40
51320;PMS5003;38732;49.556;6.286;2022-11-15T02:10:28;12.75;12.75;8.50
51320;PMS5003;38732;49.556;6.286;2022-11-15T02:12:56;14.00;13.50;9.00
51320;PMS5003;38732;49.556;6.286;2022-11-15T02:15:38;13.40;13.00;7.80
51320;PMS5003;38732;49.556;6.286;2022-11-15T02:18:17;14.00;13.00;8.60
51320;PMS5003;38732;49.556;6.286;2022-11-15T02:21:16;14.80;13.40;8.00
51320;PMS5003;38732;49.556;6.286;2022-11-15T02:24:11;14.60;12.20;8.40
51320;PMS5003;38732;49.556;6.286;2022-11-15T02:27:00;13.80;13.00;8.20
51320;PMS5003;38732;49.556;6.286;2022-11-15T02:37:57;13.00;12.20;9.00
51320;PMS5003;38732;49.556;6.286;2022-11-15T02:43:29;12.60;12.20;8.00
51320;PMS5003;38732;49.556;6.286;2022-11-15T02:46:06;12.20;10.00;7.20
51320;PMS5003;38732;49.556;6.286;2022-11-15T02:48:42;12.40;11.00;7.00
51320;PMS5003;38732;49.556;6.286;2022-11-15T02:51:11;14.75;13.50;7.50
51320;PMS5003;38732;49.556;6.286;2022-11-15T02:53:40;12.60;11.00;6.40
51320;PMS5003;38732;49.556;6.286;2022-11-15T02:56:08;13.25;11.50;7.25
51320;PMS5003;38732;49.556;6.286;2022-11-15T03:04:18;11.00;11.00;6.80
51320;PMS5003;38732;49.556;6.286;2022-11-15T03:07:00;8.60;8.40;3.80
51320;PMS5003;38732;49.556;6.286;2022-11-15T03:12:41;13.00;12.00;7.00
51320;PMS5003;38732;49.556;6.286;2022-11-15T03:17:51;11.20;10.40;7.20
51320;PMS5003;38732;49.556;6.286;2022-11-15T03:20:28;9.00;9.00;6.00
51320;PMS5003;38732;49.556;6.286;2022-11-15T03:23:00;11.60;11.60;6.80
51320;PMS5003;38732;49.556;6.286;2022-11-15T03:25:34;12.60;11.60;7.00
51320;PMS5003;38732;49.556;6.286;2022-11-15T03:28:08;12.40;10.60;6.60
51320;PMS5003;38732;49.556;6.286;2022-11-15T03:30:41;9.80;8.40;6.00
51320;PMS5003;38732;49.556;6.286;2022-11-15T03:33:11;7.40;7.40;3.40
51320;PMS5003;38732;49.556;6.286;2022-11-15T03:35:40;12.00;8.00;5.00
51320;PMS5003;38732;49.556;6.286;2022-11-15T03:38:19;10.60;10.40;6.80
51320;PMS5003;38732;49.556;6.286;2022-11-15T03:40:54;8.00;6.80;4.00
51320;PMS5003;38732;49.556;6.286;2022-11-15T03:43:28;10.60;6.40;3.80
51320;PMS5003;38732;49.556;6.286;2022-11-15T03:46:05;9.00;9.00;4.40
51320;PMS5003;38732;49.556;6.286;2022-11-15T03:48:42;7.20;4.80;2.00
51320;PMS5003;38732;49.556;6.286;2022-11-15T03:51:14;8.20;8.00;6.00
51320;PMS5003;38732;49.556;6.286;2022-11-15T03:53:43;10.50;8.50;7.00
51320;PMS5003;38732;49.556;6.286;2022-11-15T03:56:11;8.75;7.00;4.00
51320;PMS5003;38732;49.556;6.286;2022-11-15T03:58:40;11.00;9.00;5.00
51320;PMS5003;38732;49.556;6.286;2022-11-15T04:01:08;9.00;7.50;5.50
51320;PMS5003;38732;49.556;6.286;2022-11-15T04:03:36;8.75;8.00;6.00
51320;PMS5003;38732;49.556;6.286;2022-11-15T04:06:04;8.00;8.00;4.00
51320;PMS5003;38732;49.556;6.286;2022-11-15T04:08:33;10.00;9.25;5.50
51320;PMS5003;38732;49.556;6.286;2022-11-15T04:11:01;11.00;10.25;6.00
51320;PMS5003;38732;49.556;6.286;2022-11-15T04:13:29;8.00;8.00;6.00
51320;PMS5003;38732;49.556;6.286;2022-11-15T04:15:58;8.00;8.00;5.50
51320;PMS5003;38732;49.556;6.286;2022-11-15T04:18:26;13.50;10.50;6.00
51320;PMS5003;38732;49.556;6.286;2022-11-15T04:20:54;8.00;8.00;5.50
51320;PMS5003;38732;49.556;6.286;2022-11-15T04:23:22;11.00;9.00;6.75
51320;PMS5003;38732;49.556;6.286;2022-11-15T04:25:51;14.00;9.25;5.75
51320;PMS5003;38732;49.556;6.286;2022-11-15T04:28:22;11.00;10.00;6.80
51320;PMS5003;38732;49.556;6.286;2022-11-15T04:30:50;12.75;11.50;7.00
51320;PMS5003;38732;49.556;6.286;2022-11-15T04:33:19;10.75;10.50;7.00
51320;PMS5003;38732;49.556;6.286;2022-11-15T04:35:48;10.20;10.20;7.00
51320;PMS5003;38732;49.556;6.286;2022-11-15T04:38:16;15.75;12.00;6.00
51320;PMS5003;38732;49.556;6.286;2022-11-15T04:40:45;12.00;9.50;7.00
51320;PMS5003;38732;49.556;6.286;2022-11-15T04:43:14;13.60;12.20;8.00
51320;PMS5003;38732;49.556;6.286;2022-11-15T04:45:42;14.00;12.25;7.25
51320;PMS5003;38732;49.556;6.286;2022-11-15T04:48:10;11.50;11.00;6.75
51320;PMS5003;38732;49.556;6.286;2022-11-15T04:50:39;9.50;9.50;6.75
51320;PMS5003;38732;49.556;6.286;2022-11-15T04:53:07;13.25;12.50;7.00
51320;PMS5003;38732;49.556;6.286;2022-11-15T04:55:35;13.75;12.25;7.50
51320;PMS5003;38732;49.556;6.286;2022-11-15T04:58:03;11.00;9.00;6.25
51320;PMS5003;38732;49.556;6.286;2022-11-15T05:00:32;11.50;9.50;4.50
51320;PMS5003;38732;49.556;6.286;2022-11-15T05:03:00;14.00;11.50;7.00
51320;PMS5003;38732;49.556;6.286;2022-11-15T05:05:28;11.25;11.25;6.25
51320;PMS5003;38732;49.556;6.286;2022-11-15T05:07:56;6.00;6.00;4.50
51320;PMS5003;38732;49.556;6.286;2022-11-15T05:10:26;14.00;11.00;7.00
51320;PMS5003;38732;49.556;6.286;2022-11-15T05:13:03;12.20;11.00;6.60
51320;PMS5003;38732;49.556;6.286;2022-11-15T05:15:32;10.00;8.00;6.00
51320;PMS5003;38732;49.556;6.286;2022-11-15T05:18:00;11.50;9.75;6.00
51320;PMS5003;38732;49.556;6.286;2022-11-15T05:20:28;11.00;8.50;5.00
51320;PMS5003;38732;49.556;6.286;2022-11-15T05:22:56;9.00;6.75;4.00
51320;PMS5003;38732;49.556;6.286;2022-11-15T05:25:25;12.00;9.00;6.00
51320;PMS5003;38732;49.556;6.286;2022-11-15T05:27:53;7.50;7.50;4.75
51320;PMS5003;38732;49.556;6.286;2022-11-15T05:30:21;12.75;10.00;7.00
51320;PMS5003;38732;49.556;6.286;2022-11-15T05:32:49;9.50;9.50;5.75
51320;PMS5003;38732;49.556;6.286;2022-11-15T05:35:20;15.25;9.00;6.00
51320;PMS5003;38732;49.556;6.286;2022-11-15T05:37:57;8.60;8.60;6.20
51320;PMS5003;38732;49.556;6.286;2022-11-15T05:40:26;9.00;8.50;7.00
51320;PMS5003;38732;49.556;6.286;2022-11-15T05:42:56;11.80;11.80;6.60
51320;PMS5003;38732;49.556;6.286;2022-11-15T05:45:27;9.20;9.00;4.20
51320;PMS5003;38732;49.556;6.286;2022-11-15T05:47:56;8.20;8.20;4.20
51320;PMS5003;38732;49.556;6.286;2022-11-15T05:50:28;13.00;11.00;6.60
51320;PMS5003;38732;49.556;6.286;2022-11-15T05:52:56;9.00;9.00;5.50
51320;PMS5003;38732;49.556;6.286;2022-11-15T05:55:25;8.25;7.50;6.00
51320;PMS5003;38732;49.556;6.286;2022-11-15T05:57:53;9.50;9.50;6.00
51320;PMS5003;38732;49.556;6.286;2022-11-15T06:00:21;8.50;8.50;6.75
51320;PMS5003;38732;49.556;6.286;2022-11-15T06:02:49;10.00;9.50;6.00
51320;PMS5003;38732;49.556;6.286;2022-11-15T06:05:18;10.50;8.00;5.25
51320;PMS5003;38732;49.556;6.286;2022-11-15T06:07:46;12.00;11.00;7.00
51320;PMS5003;38732;49.556;6.286;2022-11-15T06:10:14;9.50;9.50;6.25
51320;PMS5003;38732;49.556;6.286;2022-11-15T06:12:42;7.25;7.25;5.25
51320;PMS5003;38732;49.556;6.286;2022-11-15T06:15:11;11.00;8.00;5.00
51320;PMS5003;38732;49.556;6.286;2022-11-15T06:17:39;7.00;7.00;5.00
51320;PMS5003;38732;49.556;6.286;2022-11-15T06:20:07;8.25;8.25;5.00
51320;PMS5003;38732;49.556;6.286;2022-11-15T06:22:36;6.75;6.75;3.00
51320;PMS5003;38732;49.556;6.286;2022-11-15T06:25:04;7.75;7.75;5.25
51320;PMS5003;38732;49.556;6.286;2022-11-15T06:27:32;11.50;10.50;5.75
51320;PMS5003;38732;49.556;6.286;2022-11-15T06:30:01;12.25;11.75;6.75
51320;PMS5003;38732;49.556;6.286;2022-11-15T06:32:29;11.00;8.25;5.75
51320;PMS5003;38732;49.556;6.286;2022-11-15T06:34:57;11.50;10.00;5.00
51320;PMS5003;38732;49.556;6.286;2022-11-15T06:37:25;13.50;8.25;5.00
51320;PMS5003;38732;49.556;6.286;2022-11-15T06:39:54;10.25;8.00;5.00
51320;PMS5003;38732;49.556;6.286;2022-11-15T06:42:22;7.00;7.00;4.00
51320;PMS5003;38732;49.556;6.286;2022-11-15T06:44:50;12.50;9.75;6.50
51320;PMS5003;38732;49.556;6.286;2022-11-15T06:47:18;6.00;5.75;5.00
51320;PMS5003;38732;49.556;6.286;2022-11-15T06:49:46;13.25;12.00;6.50
51320;PMS5003;38732;49.556;6.286;2022-11-15T06:52:15;27.00;26.50;17.00
51320;PMS5003;38732;49.556;6.286;2022-11-15T06:54:43;24.00;23.25;17.00
51320;PMS5003;38732;49.556;6.286;2022-11-15T06:57:11;24.25;21.50;11.25
51320;PMS5003;38732;49.556;6.286;2022-11-15T06:59:40;29.25;24.75;15.50
51320;PMS5003;38732;49.556;6.286;2022-11-15T07:02:12;20.50;17.00;11.50
51320;PMS5003;38732;49.556;6.286;2022-11-15T07:04:41;26.20;24.00;15.00
51320;PMS5003;38732;49.556;6.286;2022-11-15T07:07:09;22.75;19.25;12.50
51320;PMS5003;38732;49.556;6.286;2022-11-15T07:09:37;13.75;13.75;9.00
51320;PMS5003;38732;49.556;6.286;2022-11-15T07:12:06;9.75;9.25;6.50
51320;PMS5003;38732;49.556;6.286;2022-11-15T07:14:34;16.00;11.00;7.50
51320;PMS5003;38732;49.556;6.286;2022-11-15T07:17:05;19.75;13.25;8.25
51320;PMS5003;38732;49.556;6.286;2022-11-15T07:19:33;22.40;16.80;10.80
51320;PMS5003;38732;49.556;6.286;2022-11-15T07:22:02;25.00;22.50;14.00
51320;PMS5003;38732;49.556;6.286;2022-11-15T07:24:30;23.50;16.00;7.00
51320;PMS5003;38732;49.556;6.286;2022-11-15T07:26:58;15.00;11.50;6.25
51320;PMS5003;38732;49.556;6.286;2022-11-15T07:29:26;19.25;18.00;11.25
51320;PMS5003;38732;49.556;6.286;2022-11-15T07:31:55;17.00;17.00;10.00
51320;PMS5003;38732;49.556;6.286;2022-11-15T07:34:23;16.00;14.75;8.50
51320;PMS5003;38732;49.556;6.286;2022-11-15T07:36:51;11.50;11.50;9.00
51320;PMS5003;38732;49.556;6.286;2022-11-15T07:39:19;14.50;13.25;9.00
51320;PMS5003;38732;49.556;6.286;2022-11-15T07:41:47;11.00;11.00;6.75
51320;PMS5003;38732;49.556;6.286;2022-11-15T07:44:16;11.75;10.25;6.50
51320;PMS5003;38732;49.556;6.286;2022-11-15T07:56:01;9.00;8.20;5.80
51320;PMS5003;38732;49.556;6.286;2022-11-15T07:58:30;9.25;9.25;5.75
51320;PMS5003;38732;49.556;6.286;2022-11-15T08:03:36;9.60;9.00;5.80
51320;PMS5003;38732;49.556;6.286;2022-11-15T08:06:05;11.50;10.25;6.00
51320;PMS5003;38732;49.556;6.286;2022-11-15T08:08:34;7.00;7.00;5.25
51320;PMS5003;38732;49.556;6.286;2022-11-15T08:11:02;9.00;9.00;6.50
51320;PMS5003;38732;49.556;6.286;2022-11-15T08:13:31;10.00;7.00;5.00
51320;PMS5003;38732;49.556;6.286;2022-11-15T08:15:59;10.00;10.00;6.25
51320;PMS5003;38732;49.556;6.286;2022-11-15T08:18:28;9.00;8.40;6.00
51320;PMS5003;38732;49.556;6.286;2022-11-15T08:21:00;10.00;10.00;5.00
51320;PMS5003;38732;49.556;6.286;2022-11-15T08:23:29;8.00;7.00;3.00
51320;PMS5003;38732;49.556;6.286;2022-11-15T08:25:59;10.75;8.50;5.75
51320;PMS5003;38732;49.556;6.286;2022-11-15T08:28:31;8.00;8.00;6.00
51320;PMS5003;38732;49.556;6.286;2022-11-15T08:30:59;10.00;8.80;5.40
51320;PMS5003;38732;49.556;6.286;2022-11-15T08:33:28;6.50;6.50;5.00
51320;PMS5003;38732;49.556;6.286;2022-11-15T08:35:57;10.20;10.20;5.80
51320;PMS5003;38732;49.556;6.286;2022-11-15T08:38:28;9.00;9.00;5.00
51320;PMS5003;38732;49.556;6.286;2022-11-15T08:41:01;8.50;8.50;5.75
51320;PMS5003;38732;49.556;6.286;2022-11-15T08:43:32;8.00;8.00;5.60
51320;PMS5003;38732;49.556;6.286;2022-11-15T08:46:00;9.00;5.75;5.00
51320;PMS5003;38732;49.556;6.286;2022-11-15T08:48:29;11.50;11.00;5.75
51320;PMS5003;38732;49.556;6.286;2022-11-15T08:50:57;9.00;9.00;5.75
51320;PMS5003;38732;49.556;6.286;2022-11-15T08:53:25;8.00;8.00;6.00
51320;PMS5003;38732;49.556;6.286;2022-11-15T08:55:53;10.00;9.50;5.75
51320;PMS5003;38732;49.556;6.286;2022-11-15T08:58:22;7.75;7.75;4.25
51320;PMS5003;38732;49.556;6.286;2022-11-15T09:00:50;9.00;9.00;4.25
51320;PMS5003;38732;49.556;6.286;2022-11-15T09:03:18;9.00;7.75;4.25
51320;PMS5003;38732;49.556;6.286;2022-11-15T09:05:46;6.50;6.50;4.00
51320;PMS5003;38732;49.556;6.286;2022-11-15T09:08:14;8.50;7.25;5.00
51320;PMS5003;38732;49.556;6.286;2022-11-15T09:10:43;6.25;6.25;5.00
51320;PMS5003;38732;49.556;6.286;2022-11-15T09:13:11;6.50;6.50;3.75
51320;PMS5003;38732;49.556;6.286;2022-11-15T09:15:39;10.50;8.00;4.25
51320;PMS5003;38732;49.556;6.286;2022-11-15T09:18:07;10.50;8.75;4.50
51320;PMS5003;38732;49.556;6.286;2022-11-15T09:20:36;13.00;11.00;6.50
51320;PMS5003;38732;49.556;6.286;2022-11-15T09:23:04;8.50;7.00;4.00
51320;PMS5003;38732;49.556;6.286;2022-11-15T09:25:33;10.60;8.20;4.40
51320;PMS5003;38732;49.556;6.286;2022-11-15T09:28:05;6.50;6.50;2.75
51320;PMS5003;38732;49.556;6.286;2022-11-15T09:30:34;7.60;7.60;4.00
51320;PMS5003;38732;49.556;6.286;2022-11-15T09:33:08;13.25;10.50;5.00
51320;PMS5003;38732;49.556;6.286;2022-11-15T09:35:37;7.80;7.80;4.00
51320;PMS5003;38732;49.556;6.286;2022-11-15T09:38:06;9.00;9.00;6.00
51320;PMS5003;38732;49.556;6.286;2022-11-15T09:40:35;20.50;17.25;11.75
51320;PMS5003;38732;49.556;6.286;2022-11-15T09:43:22;13.80;10.60;7.00
51320;PMS5003;38732;49.556;6.286;2022-11-15T09:46:09;12.80;12.20;7.00
51320;PMS5003;38732;49.556;6.286;2022-11-15T09:48:55;10.80;10.20;7.80
51320;PMS5003;38732;49.556;6.286;2022-11-15T09:51:44;14.00;14.00;7.80
51320;PMS5003;38732;49.556;6.286;2022-11-15T09:57:11;12.00;12.00;7.40
51320;PMS5003;38732;49.556;6.286;2022-11-15T09:59:51;13.00;9.00;2.20
51320;PMS5003;38732;49.556;6.286;2022-11-15T10:02:36;17.20;15.20;8.80
51320;PMS5003;38732;49.556;6.286;2022-11-15T10:05:30;12.80;12.80;8.00
51320;PMS5003;38732;49.556;6.286;2022-11-15T10:10:58;14.40;13.20;8.00
51320;PMS5003;38732;49.556;6.286;2022-11-15T10:13:30;13.00;11.20;6.00
51320;PMS5003;38732;49.556;6.286;2022-11-15T10:21:40;11.00;11.00;8.00
51320;PMS5003;38732;49.556;6.286;2022-11-15T10:24:28;14.20;13.00;8.00
51320;PMS5003;38732;49.556;6.286;2022-11-15T10:27:07;12.40;10.40;6.00
51320;PMS5003;38732;49.556;6.286;2022-11-15T10:29:48;11.40;11.40;7.00
51320;PMS5003;38732;49.556;6.286;2022-11-15T10:32:19;13.20;12.20;7.20
51320;PMS5003;38732;49.556;6.286;2022-11-15T10:34:48;13.00;10.80;7.80
51320;PMS5003;38732;49.556;6.286;2022-11-15T10:37:27;7.80;7.40;3.00
51320;PMS5003;38732;49.556;6.286;2022-11-15T10:40:06;11.20;11.20;7.80
51320;PMS5003;38732;49.556;6.286;2022-11-15T10:45:52;9.40;9.40;5.00
51320;PMS5003;38732;49.556;6.286;2022-11-15T10:48:21;11.00;10.25;5.00
51320;PMS5003;38732;49.556;6.286;2022-11-15T10:50:51;15.40;13.20;7.20
51320;PMS5003;38732;49.556;6.286;2022-11-15T10:53:22;11.20;11.20;6.80
51320;PMS5003;38732;49.556;6.286;2022-11-15T10:55:59;10.40;10.40;7.00
51320;PMS5003;38732;49.556;6.286;2022-11-15T10:58:36;13.60;11.00;7.60
51320;PMS5003;38732;49.556;6.286;2022-11-15T11:01:19;15.00;11.20;5.60
51320;PMS5003;38732;49.556;6.286;2022-11-15T11:04:00;12.20;12.20;7.80
51320;PMS5003;38732;49.556;6.286;2022-11-15T11:06:52;11.80;10.60;7.00
51320;PMS5003;38732;49.556;6.286;2022-11-15T11:12:00;12.60;10.60;5.80
51320;PMS5003;38732;49.556;6.286;2022-11-15T11:14:33;9.50;9.50;5.00
51320;PMS5003;38732;49.556;6.286;2022-11-15T11:19:52;12.75;11.00;4.25
51320;PMS5003;38732;49.556;6.286;2022-11-15T11:25:22;7.60;7.60;3.60
51320;PMS5003;38732;49.556;6.286;2022-11-15T11:28:23;9.20;7.80;5.00
51320;PMS5003;38732;49.556;6.286;2022-11-15T11:39:42;8.20;8.20;5.00
51320;PMS5003;38732;49.556;6.286;2022-11-15T11:51:33;9.60;9.20;7.60
51320;PMS5003;38732;49.556;6.286;2022-11-15T11:54:14;13.00;9.80;5.40
51320;PMS5003;38732;49.556;6.286;2022-11-15T11:56:50;13.00;9.40;5.40
51320;PMS5003;38732;49.556;6.286;2022-11-15T12:01:55;10.80;10.80;6.00
51320;PMS5003;38732;49.556;6.286;2022-11-15T12:07:07;11.00;11.00;7.00
51320;PMS5003;38732;49.556;6.286;2022-11-15T12:09:41;8.80;8.80;5.00
51320;PMS5003;38732;49.556;6.286;2022-11-15T12:12:27;15.80;13.80;10.80
51320;PMS5003;38732;49.556;6.286;2022-11-15T12:15:04;9.80;8.20;5.00
51320;PMS5003;38732;49.556;6.286;2022-11-15T12:17:43;8.80;8.80;5.60
51320;PMS5003;38732;49.556;6.286;2022-11-15T12:22:57;14.20;11.60;8.60
51320;PMS5003;38732;49.556;6.286;2022-11-15T12:25:43;12.60;10.00;5.80
51320;PMS5003;38732;49.556;6.286;2022-11-15T12:28:32;10.40;9.40;5.60
51320;PMS5003;38732;49.556;6.286;2022-11-15T12:31:12;9.20;8.60;4.60
51320;PMS5003;38732;49.556;6.286;2022-11-15T12:33:43;10.40;10.40;8.00
51320;PMS5003;38732;49.556;6.286;2022-11-15T12:36:46;10.80;10.80;6.80
51320;PMS5003;38732;49.556;6.286;2022-11-15T12:39:17;9.40;8.00;4.00
51320;PMS5003;38732;49.556;6.286;2022-11-15T12:47:02;9.00;8.00;5.00
51320;PMS5003;38732;49.556;6.286;2022-11-15T12:52:06;5.60;5.60;3.80
51320;PMS5003;38732;49.556;6.286;2022-11-15T13:02:22;8.00;6.20;4.00
51320;PMS5003;38732;49.556;6.286;2022-11-15T13:04:54;8.60;8.20;5.00
51320;PMS5003;38732;49.556;6.286;2022-11-15T13:17:42;4.40;4.00;2.40
51320;PMS5003;38732;49.556;6.286;2022-11-15T13:25:26;4.60;4.60;4.00
51320;PMS5003;38732;49.556;6.286;2022-11-15T13:33:49;4.00;4.00;3.00
51320;PMS5003;38732;49.556;6.286;2022-11-15T13:39:04;2.80;2.80;2.00
51320;PMS5003;38732;49.556;6.286;2022-11-15T13:41:47;3.00;3.00;2.00
51320;PMS5003;38732;49.556;6.286;2022-11-15T13:44:21;4.00;2.40;1.20
51320;PMS5003;38732;49.556;6.286;2022-11-15T13:47:12;3.40;3.40;2.00
51320;PMS5003;38732;49.556;6.286;2022-11-15T13:49:42;3.20;3.00;0.60
51320;PMS5003;38732;49.556;6.286;2022-11-15T13:52:12;3.75;3.75;2.00
51320;PMS5003;38732;49.556;6.286;2022-11-15T13:54:46;2.00;2.00;0.60
51320;PMS5003;38732;49.556;6.286;2022-11-15T13:57:26;3.00;3.00;2.00
51320;PMS5003;38732;49.556;6.286;2022-11-15T14:00:03;2.40;2.40;1.60
51320;PMS5003;38732;49.556;6.286;2022-11-15T14:02:34;4.80;4.80;3.00
51320;PMS5003;38732;49.556;6.286;2022-11-15T14:05:17;3.00;3.00;2.00
51320;PMS5003;38732;49.556;6.286;2022-11-15T14:07:55;4.40;4.40;2.00
51320;PMS5003;38732;49.556;6.286;2022-11-15T14:10:42;1.40;1.40;0.40
51320;PMS5003;38732;49.556;6.286;2022-11-15T14:13:27;3.25;3.00;2.00
51320;PMS5003;38732;49.556;6.286;2022-11-15T14:18:47;4.40;4.40;2.20
51320;PMS5003;38732;49.556;6.286;2022-11-15T14:21:17;4.80;4.00;2.00
51320;PMS5003;38732;49.556;6.286;2022-11-15T14:23:47;2.00;2.00;1.40
51320;PMS5003;38732;49.556;6.286;2022-11-15T14:26:31;6.25;4.75;3.00
51320;PMS5003;38732;49.556;6.286;2022-11-15T14:34:43;4.00;4.00;3.00
51320;PMS5003;38732;49.556;6.286;2022-11-15T14:37:18;3.00;3.00;2.00
51320;PMS5003;38732;49.556;6.286;2022-11-15T14:39:54;5.40;3.00;2.60
51320;PMS5003;38732;49.556;6.286;2022-11-15T14:42:23;4.00;4.00;2.00
51320;PMS5003;38732;49.556;6.286;2022-11-15T14:44:51;4.00;4.00;2.00
51320;PMS5003;38732;49.556;6.286;2022-11-15T14:47:20;4.00;4.00;2.00
51320;PMS5003;38732;49.556;6.286;2022-11-15T14:49:48;4.50;3.00;2.00
51320;PMS5003;38732;49.556;6.286;2022-11-15T14:52:23;2.00;2.00;2.00
51320;PMS5003;38732;49.556;6.286;2022-11-15T14:54:59;5.40;3.80;3.00
51320;PMS5003;38732;49.556;6.286;2022-11-15T14:57:28;4.60;4.60;3.00
51320;PMS5003;38732;49.556;6.286;2022-11-15T14:59:56;4.75;4.75;3.00
51320;PMS5003;38732;49.556;6.286;2022-11-15T15:02:25;3.25;3.00;2.00
51320;PMS5003;38732;49.556;6.286;2022-11-15T15:04:55;9.00;5.00;3.00
51320;PMS5003;38732;49.556;6.286;2022-11-15T15:07:23;3.75;2.50;1.00
51320;PMS5003;38732;49.556;6.286;2022-11-15T15:09:51;4.00;3.25;3.00
51320;PMS5003;38732;49.556;6.286;2022-11-15T15:12:20;3.00;3.00;2.00
51320;PMS5003;38732;49.556;6.286;2022-11-15T15:14:50;5.40;4.20;3.00
51320;PMS5003;38732;49.556;6.286;2022-11-15T15:17:19;7.50;4.00;2.50
51320;PMS5003;38732;49.556;6.286;2022-11-15T15:19:47;5.00;4.25;2.25
51320;PMS5003;38732;49.556;6.286;2022-11-15T15:22:16;7.75;4.75;2.50
51320;PMS5003;38732;49.556;6.286;2022-11-15T15:24:46;4.00;3.60;3.00
51320;PMS5003;38732;49.556;6.286;2022-11-15T15:27:14;7.00;7.00;3.00
51320;PMS5003;38732;49.556;6.286;2022-11-15T15:29:42;5.00;4.00;2.00
51320;PMS5003;38732;49.556;6.286;2022-11-15T15:32:10;5.50;5.50;3.25
51320;PMS5003;38732;49.556;6.286;2022-11-15T15:34:39;4.25;4.25;2.25
51320;PMS5003;38732;49.556;6.286;2022-11-15T15:39:35;7.00;7.00;4.00
51320;PMS5003;38732;49.556;6.286;2022-11-15T15:42:03;5.00;5.00;3.00
51320;PMS5003;38732;49.556;6.286;2022-11-15T15:44:31;7.00;4.25;2.50
51320;PMS5003;38732;49.556;6.286;2022-11-15T15:47:00;8.00;7.00;4.00
51320;PMS5003;38732;49.556;6.286;2022-11-15T15:49:28;4.00;4.00;3.00
51320;PMS5003;38732;49.556;6.286;2022-11-15T15:51:56;3.75;3.25;2.00
51320;PMS5003;38732;49.556;6.286;2022-11-15T15:54:24;4.25;4.25;3.00
51320;PMS5003;38732;49.556;6.286;2022-11-15T15:56:52;4.75;4.75;3.25
51320;PMS5003;38732;49.556;6.286;2022-11-15T15:59:21;4.75;4.75;2.75
51320;PMS5003;38732;49.556;6.286;2022-11-15T16:01:49;4.50;4.50;2.75
51320;PMS5003;38732;49.556;6.286;2022-11-15T16:04:17;8.50;5.50;3.00
51320;PMS5003;38732;49.556;6.286;2022-11-15T16:06:45;5.75;4.75;3.00
51320;PMS5003;38732;49.556;6.286;2022-11-15T16:09:14;8.00;8.00;4.00
51320;PMS5003;38732;49.556;6.286;2022-11-15T16:11:44;3.20;3.00;2.60
51320;PMS5003;38732;49.556;6.286;2022-11-15T16:14:13;4.80;4.80;3.00
51320;PMS5003;38732;49.556;6.286;2022-11-15T16:16:41;6.50;4.25;3.00
51320;PMS5003;38732;49.556;6.286;2022-11-15T16:19:10;8.00;6.00;3.25
51320;PMS5003;38732;49.556;6.286;2022-11-15T16:21:38;6.50;4.00;3.00
51320;PMS5003;38732;49.556;6.286;2022-11-15T16:24:06;3.50;3.50;2.00
51320;PMS5003;38732;49.556;6.286;2022-11-15T16:26:34;4.50;4.50;2.25
51320;PMS5003;38732;49.556;6.286;2022-11-15T16:29:04;3.00;3.00;2.00
51320;PMS5003;38732;49.556;6.286;2022-11-15T16:31:32;3.00;3.00;1.25
51320;PMS5003;38732;49.556;6.286;2022-11-15T16:34:01;8.25;7.25;3.50
51320;PMS5003;38732;49.556;6.286;2022-11-15T16:36:30;3.75;3.75;2.50
51320;PMS5003;38732;49.556;6.286;2022-11-15T16:39:00;5.60;5.20;3.20
51320;PMS5003;38732;49.556;6.286;2022-11-15T16:41:29;2.80;2.80;2.40
51320;PMS5003;38732;49.556;6.286;2022-11-15T16:43:58;4.00;4.00;3.00
51320;PMS5003;38732;49.556;6.286;2022-11-15T16:46:26;6.25;6.25;3.50